sensor_id;sensor_type;location;lat;lon;timestamp;P1;durP1;ratioP1;P2;durP2;ratioP2
47239;SDS011;32978;53.586;10.052;2022-12-18T00:01:57;30.90;;;23.00;;
47239;SDS011;32978;53.586;10.052;2022-12-18T00:06:54;27.48;;;21.92;;
47239;SDS011;32978;53.586;10.052;2022-12-18T00:11:50;28.92;;;21.55;;
47239;SDS011;32978;53.586;10.052;2022-12-18T00:16:46;27.02;;;22.65;;
47239;SDS011;32978;53.586;10.052;2022-12-18T00:21:43;28.30;;;22.63;;
47239;SDS011;32978;53.586;10.052;2022-12-18T00:26:39;25.98;;;22.20;;
47239;SDS011;32978;53.586;10.052;2022-12-18T00:31:36;28.67;;;20.63;;
47239;SDS011;32978;53.586;10.052;2022-12-18T00:36:33;26.98;;;21.05;;
47239;SDS011;32978;53.586;10.052;2022-12-18T00:41:30;26.40;;;20.05;;
47239;SDS011;32978;53.586;10.052;2022-12-18T00:46:45;23.30;;;19.95;;
47239;SDS011;32978;53.586;10.052;2022-12-18T00:51:42;23.25;;;20.50;;
47239;SDS011;32978;53.586;10.052;2022-12-18T00:56:39;25.25;;;19.90;;
47239;SDS011;32978;53.586;10.052;2022-12-18T01:01:44;24.23;;;20.92;;
47239;SDS011;32978;53.586;10.052;2022-12-18T01:06:41;24.70;;;19.63;;
47239;SDS011;32978;53.586;10.052;2022-12-18T01:11:37;28.17;;;20.80;;
47239;SDS011;32978;53.586;10.052;2022-12-18T01:16:33;22.55;;;20.15;;
47239;SDS011;32978;53.586;10.052;2022-12-18T01:21:31;26.00;;;19.20;;
47239;SDS011;32978;53.586;10.052;2022-12-18T01:26:27;22.85;;;18.13;;
47239;SDS011;32978;53.586;10.052;2022-12-18T01:31:26;26.08;;;19.10;;
47239;SDS011;32978;53.586;10.052;2022-12-18T01:36:24;26.10;;;19.75;;
47239;SDS011;32978;53.586;10.052;2022-12-18T01:41:25;25.20;;;18.98;;
47239;SDS011;32978;53.586;10.052;2022-12-18T01:46:22;22.20;;;18.30;;
47239;SDS011;32978;53.586;10.052;2022-12-18T01:51:19;23.35;;;19.23;;
47239;SDS011;32978;53.586;10.052;2022-12-18T01:56:16;27.90;;;20.85;;
47239;SDS011;32978;53.586;10.052;2022-12-18T02:01:13;26.20;;;19.88;;
47239;SDS011;32978;53.586;10.052;2022-12-18T02:06:54;21.50;;;17.70;;
47239;SDS011;32978;53.586;10.052;2022-12-18T02:11:32;25.00;;;19.38;;
47239;SDS011;32978;53.586;10.052;2022-12-18T02:16:36;23.92;;;19.02;;
47239;SDS011;32978;53.586;10.052;2022-12-18T02:26:34;20.73;;;18.35;;
47239;SDS011;32978;53.586;10.052;2022-12-18T02:31:35;23.48;;;18.08;;
47239;SDS011;32978;53.586;10.052;2022-12-18T02:36:32;21.90;;;16.80;;
47239;SDS011;32978;53.586;10.052;2022-12-18T02:41:29;21.65;;;17.85;;
47239;SDS011;32978;53.586;10.052;2022-12-18T02:46:30;18.52;;;16.52;;
47239;SDS011;32978;53.586;10.052;2022-12-18T02:51:29;27.13;;;17.30;;
47239;SDS011;32978;53.586;10.052;2022-12-18T02:56:29;19.92;;;16.95;;
47239;SDS011;32978;53.586;10.052;2022-12-18T03:01:30;20.45;;;17.20;;
47239;SDS011;32978;53.586;10.052;2022-12-18T03:06:32;22.92;;;17.50;;
47239;SDS011;32978;53.586;10.052;2022-12-18T03:11:31;19.00;;;16.23;;
47239;SDS011;32978;53.586;10.052;2022-12-18T03:16:48;21.08;;;15.90;;
47239;SDS011;32978;53.586;10.052;2022-12-18T03:21:45;23.45;;;16.35;;
47239;SDS011;32978;53.586;10.052;2022-12-18T03:26:44;20.92;;;17.33;;
47239;SDS011;32978;53.586;10.052;2022-12-18T03:31:42;19.33;;;16.23;;
47239;SDS011;32978;53.586;10.052;2022-12-18T03:36:41;19.90;;;15.70;;
47239;SDS011;32978;53.586;10.052;2022-12-18T03:41:42;18.23;;;15.90;;
47239;SDS011;32978;53.586;10.052;2022-12-18T03:56:42;20.70;;;16.30;;
47239;SDS011;32978;53.586;10.052;2022-12-18T04:01:41;19.58;;;15.43;;
47239;SDS011;32978;53.586;10.052;2022-12-18T04:06:39;18.10;;;16.13;;
47239;SDS011;32978;53.586;10.052;2022-12-18T04:11:36;19.35;;;16.70;;
47239;SDS011;32978;53.586;10.052;2022-12-18T04:16:32;23.52;;;15.98;;
47239;SDS011;32978;53.586;10.052;2022-12-18T04:21:29;22.02;;;16.67;;
47239;SDS011;32978;53.586;10.052;2022-12-18T04:26:25;19.35;;;16.80;;
47239;SDS011;32978;53.586;10.052;2022-12-18T04:31:21;20.02;;;15.75;;
47239;SDS011;32978;53.586;10.052;2022-12-18T04:36:18;17.45;;;15.00;;
47239;SDS011;32978;53.586;10.052;2022-12-18T04:41:14;19.42;;;15.60;;
47239;SDS011;32978;53.586;10.052;2022-12-18T04:46:10;19.58;;;15.57;;
47239;SDS011;32978;53.586;10.052;2022-12-18T04:51:06;20.70;;;17.20;;
47239;SDS011;32978;53.586;10.052;2022-12-18T04:56:06;18.52;;;15.73;;
47239;SDS011;32978;53.586;10.052;2022-12-18T05:01:03;23.45;;;16.33;;
47239;SDS011;32978;53.586;10.052;2022-12-18T05:06:00;24.58;;;17.05;;
47239;SDS011;32978;53.586;10.052;2022-12-18T05:11:07;20.25;;;15.75;;
47239;SDS011;32978;53.586;10.052;2022-12-18T05:16:04;23.00;;;16.58;;
47239;SDS011;32978;53.586;10.052;2022-12-18T05:21:00;17.52;;;15.50;;
47239;SDS011;32978;53.586;10.052;2022-12-18T05:25:58;18.23;;;16.25;;
47239;SDS011;32978;53.586;10.052;2022-12-18T05:30:55;20.52;;;16.60;;
47239;SDS011;32978;53.586;10.052;2022-12-18T05:35:53;20.30;;;17.23;;
47239;SDS011;32978;53.586;10.052;2022-12-18T05:40:50;19.15;;;15.80;;
47239;SDS011;32978;53.586;10.052;2022-12-18T05:45:47;21.15;;;16.88;;
47239;SDS011;32978;53.586;10.052;2022-12-18T05:50:44;23.85;;;17.30;;
47239;SDS011;32978;53.586;10.052;2022-12-18T05:55:44;20.08;;;16.80;;
47239;SDS011;32978;53.586;10.052;2022-12-18T06:00:41;25.45;;;17.52;;
47239;SDS011;32978;53.586;10.052;2022-12-18T06:05:41;21.83;;;17.05;;
47239;SDS011;32978;53.586;10.052;2022-12-18T06:10:39;22.33;;;17.20;;
47239;SDS011;32978;53.586;10.052;2022-12-18T06:15:38;21.58;;;17.40;;
47239;SDS011;32978;53.586;10.052;2022-12-18T06:20:34;20.67;;;17.98;;
47239;SDS011;32978;53.586;10.052;2022-12-18T06:25:32;22.30;;;18.33;;
47239;SDS011;32978;53.586;10.052;2022-12-18T06:30:29;25.48;;;18.00;;
47239;SDS011;32978;53.586;10.052;2022-12-18T06:35:25;23.83;;;19.40;;
47239;SDS011;32978;53.586;10.052;2022-12-18T06:40:21;24.63;;;19.83;;
47239;SDS011;32978;53.586;10.052;2022-12-18T06:45:18;21.42;;;19.13;;
47239;SDS011;32978;53.586;10.052;2022-12-18T06:50:14;27.20;;;20.08;;
47239;SDS011;32978;53.586;10.052;2022-12-18T06:55:10;22.35;;;18.50;;
47239;SDS011;32978;53.586;10.052;2022-12-18T07:00:07;21.73;;;18.27;;
47239;SDS011;32978;53.586;10.052;2022-12-18T07:05:03;25.70;;;19.08;;
47239;SDS011;32978;53.586;10.052;2022-12-18T07:10:06;24.58;;;19.50;;
47239;SDS011;32978;53.586;10.052;2022-12-18T07:15:02;28.55;;;20.73;;
47239;SDS011;32978;53.586;10.052;2022-12-18T07:19:59;28.25;;;20.85;;
47239;SDS011;32978;53.586;10.052;2022-12-18T07:24:55;28.33;;;19.30;;
47239;SDS011;32978;53.586;10.052;2022-12-18T07:29:51;22.25;;;19.95;;
47239;SDS011;32978;53.586;10.052;2022-12-18T07:34:48;27.25;;;20.35;;
47239;SDS011;32978;53.586;10.052;2022-12-18T07:39:44;22.55;;;18.95;;
47239;SDS011;32978;53.586;10.052;2022-12-18T07:44:41;24.77;;;20.58;;
47239;SDS011;32978;53.586;10.052;2022-12-18T07:49:37;24.63;;;20.48;;
47239;SDS011;32978;53.586;10.052;2022-12-18T07:54:34;24.08;;;21.20;;
47239;SDS011;32978;53.586;10.052;2022-12-18T07:59:30;26.23;;;20.77;;
47239;SDS011;32978;53.586;10.052;2022-12-18T08:04:26;26.33;;;19.90;;
47239;SDS011;32978;53.586;10.052;2022-12-18T08:09:23;22.30;;;19.80;;
47239;SDS011;32978;53.586;10.052;2022-12-18T08:14:19;22.40;;;19.73;;
47239;SDS011;32978;53.586;10.052;2022-12-18T08:19:16;27.67;;;19.23;;
47239;SDS011;32978;53.586;10.052;2022-12-18T08:24:12;25.70;;;20.55;;
47239;SDS011;32978;53.586;10.052;2022-12-18T08:29:11;23.65;;;19.90;;
47239;SDS011;32978;53.586;10.052;2022-12-18T08:34:15;25.77;;;21.30;;
47239;SDS011;32978;53.586;10.052;2022-12-18T08:39:11;25.30;;;20.50;;
47239;SDS011;32978;53.586;10.052;2022-12-18T08:44:07;27.00;;;19.58;;
47239;SDS011;32978;53.586;10.052;2022-12-18T08:49:22;25.83;;;19.55;;
47239;SDS011;32978;53.586;10.052;2022-12-18T08:54:19;24.67;;;19.65;;
47239;SDS011;32978;53.586;10.052;2022-12-18T08:59:16;26.23;;;19.35;;
47239;SDS011;32978;53.586;10.052;2022-12-18T09:04:15;25.65;;;19.73;;
47239;SDS011;32978;53.586;10.052;2022-12-18T09:09:12;28.77;;;20.02;;
47239;SDS011;32978;53.586;10.052;2022-12-18T09:14:08;22.08;;;19.67;;
47239;SDS011;32978;53.586;10.052;2022-12-18T09:19:05;23.85;;;19.02;;
47239;SDS011;32978;53.586;10.052;2022-12-18T09:24:01;31.60;;;21.23;;
47239;SDS011;32978;53.586;10.052;2022-12-18T09:28:58;24.33;;;18.38;;
47239;SDS011;32978;53.586;10.052;2022-12-18T09:33:56;23.20;;;17.77;;
47239;SDS011;32978;53.586;10.052;2022-12-18T09:38:52;21.65;;;17.55;;
47239;SDS011;32978;53.586;10.052;2022-12-18T09:43:53;24.90;;;18.38;;
47239;SDS011;32978;53.586;10.052;2022-12-18T09:48:50;20.40;;;17.17;;
47239;SDS011;32978;53.586;10.052;2022-12-18T09:54:07;26.50;;;17.45;;
47239;SDS011;32978;53.586;10.052;2022-12-18T09:59:08;23.65;;;14.93;;
47239;SDS011;32978;53.586;10.052;2022-12-18T10:04:10;21.60;;;15.00;;
47239;SDS011;32978;53.586;10.052;2022-12-18T10:09:14;20.15;;;13.02;;
47239;SDS011;32978;53.586;10.052;2022-12-18T10:14:15;18.50;;;13.35;;
47239;SDS011;32978;53.586;10.052;2022-12-18T10:29:17;23.92;;;13.45;;
47239;SDS011;32978;53.586;10.052;2022-12-18T10:34:14;22.83;;;14.05;;
47239;SDS011;32978;53.586;10.052;2022-12-18T10:39:14;23.67;;;14.75;;
47239;SDS011;32978;53.586;10.052;2022-12-18T10:49:17;24.38;;;13.80;;
47239;SDS011;32978;53.586;10.052;2022-12-18T10:54:18;21.52;;;13.63;;
47239;SDS011;32978;53.586;10.052;2022-12-18T10:59:16;24.87;;;14.20;;
47239;SDS011;32978;53.586;10.052;2022-12-18T11:04:16;19.65;;;13.68;;
47239;SDS011;32978;53.586;10.052;2022-12-18T11:09:19;24.27;;;14.50;;
47239;SDS011;32978;53.586;10.052;2022-12-18T11:14:18;21.98;;;14.63;;
47239;SDS011;32978;53.586;10.052;2022-12-18T11:29:20;19.95;;;14.38;;
47239;SDS011;32978;53.586;10.052;2022-12-18T11:34:24;23.37;;;13.30;;
47239;SDS011;32978;53.586;10.052;2022-12-18T11:39:40;21.80;;;13.38;;
47239;SDS011;32978;53.586;10.052;2022-12-18T11:49:54;21.05;;;14.93;;
47239;SDS011;32978;53.586;10.052;2022-12-18T11:54:52;20.77;;;14.68;;
47239;SDS011;32978;53.586;10.052;2022-12-18T11:59:55;23.48;;;14.27;;
47239;SDS011;32978;53.586;10.052;2022-12-18T12:10:11;21.38;;;14.60;;
47239;SDS011;32978;53.586;10.052;2022-12-18T12:25:37;25.23;;;13.52;;
47239;SDS011;32978;53.586;10.052;2022-12-18T12:40:33;21.58;;;13.55;;
47239;SDS011;32978;53.586;10.052;2022-12-18T12:50:46;22.77;;;13.82;;
47239;SDS011;32978;53.586;10.052;2022-12-18T12:55:43;23.35;;;12.88;;
47239;SDS011;32978;53.586;10.052;2022-12-18T13:00:50;20.55;;;12.10;;
47239;SDS011;32978;53.586;10.052;2022-12-18T13:05:51;19.60;;;12.70;;
47239;SDS011;32978;53.586;10.052;2022-12-18T13:10:49;18.85;;;12.98;;
47239;SDS011;32978;53.586;10.052;2022-12-18T13:16:05;26.05;;;13.55;;
47239;SDS011;32978;53.586;10.052;2022-12-18T13:21:04;22.35;;;13.18;;
47239;SDS011;32978;53.586;10.052;2022-12-18T13:36:10;21.95;;;13.98;;
47239;SDS011;32978;53.586;10.052;2022-12-18T13:51:11;24.33;;;15.13;;
47239;SDS011;32978;53.586;10.052;2022-12-18T13:56:17;25.95;;;15.57;;
47239;SDS011;32978;53.586;10.052;2022-12-18T14:01:23;26.73;;;14.60;;
47239;SDS011;32978;53.586;10.052;2022-12-18T14:06:20;26.80;;;14.30;;
47239;SDS011;32978;53.586;10.052;2022-12-18T14:11:19;28.92;;;15.73;;
47239;SDS011;32978;53.586;10.052;2022-12-18T14:16:18;25.58;;;14.68;;
47239;SDS011;32978;53.586;10.052;2022-12-18T14:21:22;27.40;;;15.95;;
47239;SDS011;32978;53.586;10.052;2022-12-18T14:26:23;28.05;;;16.65;;
47239;SDS011;32978;53.586;10.052;2022-12-18T14:31:21;30.13;;;17.70;;
47239;SDS011;32978;53.586;10.052;2022-12-18T14:36:19;32.60;;;17.23;;
47239;SDS011;32978;53.586;10.052;2022-12-18T14:41:16;37.75;;;18.77;;
47239;SDS011;32978;53.586;10.052;2022-12-18T14:51:30;35.78;;;19.92;;
47239;SDS011;32978;53.586;10.052;2022-12-18T14:56:33;30.10;;;17.75;;
47239;SDS011;32978;53.586;10.052;2022-12-18T15:01:34;32.42;;;18.80;;
47239;SDS011;32978;53.586;10.052;2022-12-18T15:06:34;33.97;;;19.30;;
47239;SDS011;32978;53.586;10.052;2022-12-18T15:11:35;32.60;;;18.73;;
47239;SDS011;32978;53.586;10.052;2022-12-18T15:16:32;35.35;;;20.15;;
47239;SDS011;32978;53.586;10.052;2022-12-18T15:21:28;34.65;;;18.38;;
47239;SDS011;32978;53.586;10.052;2022-12-18T15:26:27;35.15;;;19.67;;
47239;SDS011;32978;53.586;10.052;2022-12-18T15:31:33;35.47;;;19.55;;
47239;SDS011;32978;53.586;10.052;2022-12-18T15:36:31;29.60;;;18.42;;
47239;SDS011;32978;53.586;10.052;2022-12-18T15:41:27;32.97;;;18.38;;
47239;SDS011;32978;53.586;10.052;2022-12-18T15:46:24;36.58;;;21.05;;
47239;SDS011;32978;53.586;10.052;2022-12-18T15:51:33;38.03;;;19.73;;
47239;SDS011;32978;53.586;10.052;2022-12-18T15:56:31;30.85;;;18.55;;
47239;SDS011;32978;53.586;10.052;2022-12-18T16:01:47;31.85;;;19.38;;
47239;SDS011;32978;53.586;10.052;2022-12-18T16:06:43;29.88;;;18.70;;
47239;SDS011;32978;53.586;10.052;2022-12-18T16:12:00;31.73;;;18.33;;
47239;SDS011;32978;53.586;10.052;2022-12-18T16:17:00;36.45;;;21.02;;
47239;SDS011;32978;53.586;10.052;2022-12-18T16:21:57;30.73;;;19.50;;
47239;SDS011;32978;53.586;10.052;2022-12-18T16:26:55;31.58;;;18.10;;
47239;SDS011;32978;53.586;10.052;2022-12-18T16:31:55;35.00;;;21.13;;
47239;SDS011;32978;53.586;10.052;2022-12-18T16:36:52;32.33;;;18.83;;
47239;SDS011;32978;53.586;10.052;2022-12-18T16:41:49;32.33;;;20.27;;
47239;SDS011;32978;53.586;10.052;2022-12-18T16:46:45;31.17;;;18.73;;
47239;SDS011;32978;53.586;10.052;2022-12-18T16:51:42;32.40;;;20.50;;
47239;SDS011;32978;53.586;10.052;2022-12-18T16:56:38;34.20;;;19.05;;
47239;SDS011;32978;53.586;10.052;2022-12-18T17:01:35;32.95;;;19.45;;
47239;SDS011;32978;53.586;10.052;2022-12-18T17:06:33;30.58;;;18.40;;
47239;SDS011;32978;53.586;10.052;2022-12-18T17:11:31;31.00;;;19.27;;
47239;SDS011;32978;53.586;10.052;2022-12-18T17:16:28;34.28;;;19.40;;
47239;SDS011;32978;53.586;10.052;2022-12-18T17:21:24;36.15;;;20.08;;
47239;SDS011;32978;53.586;10.052;2022-12-18T17:26:21;27.63;;;18.20;;
47239;SDS011;32978;53.586;10.052;2022-12-18T17:31:18;29.67;;;18.08;;
47239;SDS011;32978;53.586;10.052;2022-12-18T17:36:14;28.33;;;18.00;;
47239;SDS011;32978;53.586;10.052;2022-12-18T17:41:11;26.13;;;17.50;;
47239;SDS011;32978;53.586;10.052;2022-12-18T17:46:11;28.73;;;16.27;;
47239;SDS011;32978;53.586;10.052;2022-12-18T17:51:08;27.38;;;17.30;;
47239;SDS011;32978;53.586;10.052;2022-12-18T17:56:06;27.00;;;16.77;;
47239;SDS011;32978;53.586;10.052;2022-12-18T18:01:03;24.17;;;15.82;;
47239;SDS011;32978;53.586;10.052;2022-12-18T18:06:00;26.63;;;17.02;;
47239;SDS011;32978;53.586;10.052;2022-12-18T18:10:57;22.17;;;16.00;;
47239;SDS011;32978;53.586;10.052;2022-12-18T18:16:19;26.93;;;17.57;;
47239;SDS011;32978;53.586;10.052;2022-12-18T18:21:15;25.33;;;16.25;;
47239;SDS011;32978;53.586;10.052;2022-12-18T18:26:12;26.80;;;16.40;;
47239;SDS011;32978;53.586;10.052;2022-12-18T18:31:08;21.05;;;15.18;;
47239;SDS011;32978;53.586;10.052;2022-12-18T18:36:08;23.67;;;17.05;;
47239;SDS011;32978;53.586;10.052;2022-12-18T18:41:04;21.90;;;15.45;;
47239;SDS011;32978;53.586;10.052;2022-12-18T18:46:01;25.45;;;15.13;;
47239;SDS011;32978;53.586;10.052;2022-12-18T18:51:02;20.55;;;15.05;;
47239;SDS011;32978;53.586;10.052;2022-12-18T18:55:59;23.67;;;16.15;;
47239;SDS011;32978;53.586;10.052;2022-12-18T19:01:16;21.80;;;15.10;;
47239;SDS011;32978;53.586;10.052;2022-12-18T19:06:14;27.25;;;15.57;;
47239;SDS011;32978;53.586;10.052;2022-12-18T19:11:12;22.58;;;15.27;;
47239;SDS011;32978;53.586;10.052;2022-12-18T19:16:31;20.80;;;14.30;;
47239;SDS011;32978;53.586;10.052;2022-12-18T19:21:28;22.77;;;15.15;;
47239;SDS011;32978;53.586;10.052;2022-12-18T19:26:29;22.13;;;15.43;;
47239;SDS011;32978;53.586;10.052;2022-12-18T19:31:25;21.30;;;15.57;;
47239;SDS011;32978;53.586;10.052;2022-12-18T19:36:30;20.83;;;14.75;;
47239;SDS011;32978;53.586;10.052;2022-12-18T19:41:28;21.02;;;14.82;;
47239;SDS011;32978;53.586;10.052;2022-12-18T19:46:28;20.52;;;13.60;;
47239;SDS011;32978;53.586;10.052;2022-12-18T19:51:25;19.20;;;14.43;;
47239;SDS011;32978;53.586;10.052;2022-12-18T19:56:22;23.48;;;15.13;;
47239;SDS011;32978;53.586;10.052;2022-12-18T20:01:21;28.42;;;15.32;;
47239;SDS011;32978;53.586;10.052;2022-12-18T20:06:20;24.33;;;15.38;;
47239;SDS011;32978;53.586;10.052;2022-12-18T20:11:19;24.30;;;14.77;;
47239;SDS011;32978;53.586;10.052;2022-12-18T20:16:16;26.63;;;16.27;;
47239;SDS011;32978;53.586;10.052;2022-12-18T20:21:12;30.30;;;16.83;;
47239;SDS011;32978;53.586;10.052;2022-12-18T20:26:09;30.70;;;16.13;;
47239;SDS011;32978;53.586;10.052;2022-12-18T20:31:06;25.75;;;15.68;;
47239;SDS011;32978;53.586;10.052;2022-12-18T20:41:09;27.23;;;16.40;;
47239;SDS011;32978;53.586;10.052;2022-12-18T20:46:07;23.88;;;16.10;;
47239;SDS011;32978;53.586;10.052;2022-12-18T20:51:06;25.58;;;16.02;;
47239;SDS011;32978;53.586;10.052;2022-12-18T20:56:06;29.95;;;15.95;;
47239;SDS011;32978;53.586;10.052;2022-12-18T21:01:06;30.20;;;17.95;;
47239;SDS011;32978;53.586;10.052;2022-12-18T21:06:02;26.08;;;17.15;;
47239;SDS011;32978;53.586;10.052;2022-12-18T21:11:12;24.30;;;16.10;;
47239;SDS011;32978;53.586;10.052;2022-12-18T21:16:28;27.13;;;16.85;;
47239;SDS011;32978;53.586;10.052;2022-12-18T21:21:24;26.63;;;15.70;;
47239;SDS011;32978;53.586;10.052;2022-12-18T21:26:23;27.70;;;16.38;;
47239;SDS011;32978;53.586;10.052;2022-12-18T21:31:20;24.67;;;16.80;;
47239;SDS011;32978;53.586;10.052;2022-12-18T21:36:17;25.00;;;16.10;;
47239;SDS011;32978;53.586;10.052;2022-12-18T21:41:14;29.15;;;18.05;;
47239;SDS011;32978;53.586;10.052;2022-12-18T21:46:38;26.10;;;16.95;;
47239;SDS011;32978;53.586;10.052;2022-12-18T21:51:35;27.50;;;16.67;;
47239;SDS011;32978;53.586;10.052;2022-12-18T22:01:43;30.02;;;17.50;;
47239;SDS011;32978;53.586;10.052;2022-12-18T22:06:39;27.42;;;16.88;;
47239;SDS011;32978;53.586;10.052;2022-12-18T22:11:37;27.75;;;17.25;;
47239;SDS011;32978;53.586;10.052;2022-12-18T22:16:34;32.35;;;18.67;;
47239;SDS011;32978;53.586;10.052;2022-12-18T22:21:32;32.58;;;18.65;;
47239;SDS011;32978;53.586;10.052;2022-12-18T22:26:29;25.75;;;17.80;;
47239;SDS011;32978;53.586;10.052;2022-12-18T22:31:33;23.63;;;16.17;;
47239;SDS011;32978;53.586;10.052;2022-12-18T22:36:36;30.33;;;17.95;;
47239;SDS011;32978;53.586;10.052;2022-12-18T22:41:32;28.67;;;17.30;;
47239;SDS011;32978;53.586;10.052;2022-12-18T22:46:32;27.85;;;17.38;;
47239;SDS011;32978;53.586;10.052;2022-12-18T22:51:29;26.85;;;17.48;;
47239;SDS011;32978;53.586;10.052;2022-12-18T22:56:26;30.65;;;17.05;;
47239;SDS011;32978;53.586;10.052;2022-12-18T23:01:23;29.38;;;16.88;;
47239;SDS011;32978;53.586;10.052;2022-12-18T23:06:20;27.52;;;16.77;;
47239;SDS011;32978;53.586;10.052;2022-12-18T23:11:17;30.95;;;17.95;;
47239;SDS011;32978;53.586;10.052;2022-12-18T23:16:14;30.73;;;17.00;;
47239;SDS011;32978;53.586;10.052;2022-12-18T23:21:15;26.48;;;16.27;;
47239;SDS011;32978;53.586;10.052;2022-12-18T23:26:13;25.60;;;17.45;;
47239;SDS011;32978;53.586;10.052;2022-12-18T23:31:13;24.42;;;16.23;;
47239;SDS011;32978;53.586;10.052;2022-12-18T23:36:12;28.70;;;17.33;;
47239;SDS011;32978;53.586;10.052;2022-12-18T23:41:09;28.42;;;16.20;;
47239;SDS011;32978;53.586;10.052;2022-12-18T23:46:09;31.10;;;17.00;;
47239;SDS011;32978;53.586;10.052;2022-12-18T23:51:06;26.63;;;16.88;;
47239;SDS011;32978;53.586;10.052;2022-12-18T23:56:03;24.35;;;16.20;;
